createdAt,value
2018-02-02T00:00:13.553Z,4.87
2018-02-02T00:02:40.749Z,2.87
2018-02-02T00:05:07.173Z,5.43
2018-02-02T00:07:34.356Z,4.63
2018-02-02T00:10:00.741Z,4.87
2018-02-02T00:12:27.161Z,5.53
2018-02-02T00:14:53.638Z,4.67
2018-02-02T00:17:20.071Z,4.43
2018-02-02T00:19:46.471Z,5.03
2018-02-02T00:22:12.916Z,3.80
2018-02-02T00:24:39.331Z,4.27
2018-02-02T00:27:06.935Z,5.73
2018-02-02T00:29:33.345Z,5.47
2018-02-02T00:32:00.536Z,7.40
2018-02-02T00:34:26.943Z,6.00
2018-02-02T00:36:53.341Z,5.47
2018-02-02T00:39:19.810Z,6.43
2018-02-02T00:41:46.205Z,5.43
2018-02-02T00:44:12.681Z,7.07
2018-02-02T00:46:39.131Z,7.20
2018-02-02T00:49:07.441Z,6.53
2018-02-02T00:51:40.097Z,5.80
2018-02-02T00:54:07.599Z,4.83
2018-02-02T00:56:33.993Z,5.50
2018-02-02T00:59:00.495Z,5.73
2018-02-02T01:01:27.917Z,6.20
2018-02-02T01:03:54.321Z,5.97
2018-02-02T01:06:20.838Z,5.80
2018-02-02T01:08:47.290Z,5.50
2018-02-02T01:11:13.690Z,5.30
2018-02-02T01:13:40.133Z,7.50
2018-02-02T01:16:07.542Z,7.10
2018-02-02T01:18:33.926Z,4.40
2018-02-02T01:21:01.873Z,7.47
2018-02-02T01:23:28.301Z,7.73
2018-02-02T01:25:54.925Z,7.47
2018-02-02T01:28:21.346Z,7.77
2018-02-02T01:30:48.530Z,7.97
2018-02-02T01:33:15.021Z,6.17
2018-02-02T01:35:42.217Z,6.73
2018-02-02T01:38:09.375Z,8.33
2018-02-02T01:40:35.830Z,7.30
2018-02-02T01:43:02.278Z,6.23
2018-02-02T01:45:28.797Z,7.00
2018-02-02T01:48:08.339Z,6.40
2018-02-02T01:50:34.823Z,7.43
2018-02-02T01:53:01.205Z,5.57
2018-02-02T01:55:27.638Z,6.27
2018-02-02T01:57:54.075Z,7.10
2018-02-02T02:00:21.194Z,6.53
2018-02-02T02:02:47.614Z,4.40
2018-02-02T02:05:14.042Z,6.67
2018-02-02T02:07:40.462Z,8.20
2018-02-02T02:10:06.932Z,5.50
2018-02-02T02:12:33.341Z,7.83
2018-02-02T02:15:00.503Z,7.47
2018-02-02T02:17:27.690Z,6.93
2018-02-02T02:19:54.120Z,8.13
2018-02-02T02:22:21.273Z,7.70
2018-02-02T02:24:47.726Z,7.67
2018-02-02T02:27:14.245Z,6.80
2018-02-02T02:29:40.646Z,6.77
2018-02-02T02:32:07.529Z,8.10
2018-02-02T02:34:33.947Z,7.60
2018-02-02T02:37:00.352Z,4.70
2018-02-02T02:39:26.858Z,9.20
2018-02-02T02:41:53.253Z,9.50
2018-02-02T02:44:20.417Z,10.73
2018-02-02T02:46:48.087Z,9.87
2018-02-02T02:49:14.550Z,9.90
2018-02-02T02:51:40.962Z,12.10
2018-02-02T02:54:08.451Z,9.63
2018-02-02T02:56:34.894Z,9.13
2018-02-02T02:59:01.321Z,10.87
2018-02-02T03:01:27.757Z,8.17
2018-02-02T03:03:54.926Z,10.70
2018-02-02T03:06:22.160Z,9.33
2018-02-02T03:08:49.373Z,11.80
2018-02-02T03:11:15.783Z,12.17
2018-02-02T03:13:42.193Z,8.20
2018-02-02T03:16:09.015Z,11.90
2018-02-02T03:18:35.443Z,11.53
2018-02-02T03:21:02.977Z,12.30
2018-02-02T03:23:29.418Z,9.70
2018-02-02T03:25:55.855Z,11.30
2018-02-02T03:28:22.261Z,13.23
2018-02-02T03:30:48.755Z,12.17
2018-02-02T03:33:15.709Z,12.17
2018-02-02T03:35:42.146Z,10.90
2018-02-02T03:38:08.857Z,12.27
2018-02-02T03:40:35.289Z,12.93
2018-02-02T03:43:01.824Z,12.50
2018-02-02T03:45:28.265Z,11.23
2018-02-02T03:47:54.697Z,12.03
2018-02-02T03:50:21.145Z,11.43
2018-02-02T03:52:47.674Z,12.00
2018-02-02T03:55:14.112Z,12.47
2018-02-02T03:57:40.534Z,10.90
2018-02-02T04:00:07.636Z,11.70
2018-02-02T04:02:34.938Z,9.83
2018-02-02T04:05:02.168Z,10.90
2018-02-02T04:07:28.607Z,9.50
2018-02-02T04:09:55.002Z,11.00
2018-02-02T04:12:21.494Z,11.53
2018-02-02T04:14:47.910Z,10.40
2018-02-02T04:17:14.378Z,11.33
2018-02-02T04:19:40.810Z,10.20
2018-02-02T04:22:07.794Z,10.03
2018-02-02T04:24:34.274Z,10.57
2018-02-02T04:27:01.413Z,9.97
2018-02-02T04:29:28.635Z,9.40
2018-02-02T04:31:55.100Z,9.80
2018-02-02T04:34:21.599Z,8.20
2018-02-02T04:36:48.831Z,8.43
2018-02-02T04:39:15.265Z,9.33
2018-02-02T04:41:41.681Z,8.70
2018-02-02T04:44:08.668Z,10.67
2018-02-02T04:46:35.196Z,9.70
2018-02-02T04:49:02.785Z,10.57
2018-02-02T04:51:30.027Z,9.03
2018-02-02T04:53:56.444Z,10.17
2018-02-02T04:56:23.575Z,7.83
2018-02-02T04:58:50.057Z,9.50
2018-02-02T05:01:16.491Z,8.63
2018-02-02T05:03:42.998Z,8.30
2018-02-02T05:06:09.498Z,8.57
2018-02-02T05:08:35.962Z,8.10
2018-02-02T05:11:02.433Z,7.90
2018-02-02T05:13:29.616Z,6.83
2018-02-02T05:15:56.660Z,8.10
2018-02-02T05:18:23.222Z,8.27
2018-02-02T05:20:50.459Z,8.70
2018-02-02T05:23:16.932Z,7.87
2018-02-02T05:25:44.391Z,7.73
2018-02-02T05:28:10.904Z,8.73
2018-02-02T05:30:37.360Z,8.53
2018-02-02T05:33:04.635Z,8.07
2018-02-02T05:35:31.841Z,6.23
2018-02-02T05:37:58.986Z,8.77
2018-02-02T05:40:25.515Z,8.60
2018-02-02T05:42:52.784Z,7.90
2018-02-02T05:45:19.319Z,9.37
2018-02-02T05:47:45.883Z,6.93
2018-02-02T05:50:12.426Z,11.43
2018-02-02T05:52:38.899Z,7.73
2018-02-02T05:55:06.015Z,7.93
2018-02-02T05:57:32.453Z,8.20
2018-02-02T05:59:59.685Z,10.10
2018-02-02T06:02:26.126Z,8.17
2018-02-02T06:04:52.591Z,6.03
2018-02-02T06:07:19.111Z,8.57
2018-02-02T06:09:45.590Z,8.20
2018-02-02T06:12:12.877Z,7.90
2018-02-02T06:14:39.287Z,8.23
2018-02-02T06:17:07.094Z,7.97
2018-02-02T06:19:36.962Z,7.37
2018-02-02T06:22:03.958Z,7.20
2018-02-02T06:24:30.443Z,8.60
2018-02-02T06:26:57.673Z,7.33
2018-02-02T06:29:24.234Z,5.30
2018-02-02T06:31:51.518Z,5.77
2018-02-02T06:34:18.904Z,8.70
2018-02-02T06:36:45.836Z,8.00
2018-02-02T06:39:12.431Z,7.77
2018-02-02T06:41:38.999Z,8.80
2018-02-02T06:44:06.222Z,8.43
2018-02-02T06:46:33.041Z,6.77
2018-02-02T06:49:00.474Z,7.20
2018-02-02T06:51:27.112Z,7.67
2018-02-02T06:53:54.197Z,5.83
2018-02-02T06:56:21.766Z,7.97
2018-02-02T06:58:48.554Z,6.20
2018-02-02T07:01:16.295Z,7.63
2018-02-02T07:03:43.123Z,8.57
2018-02-02T07:06:10.674Z,7.60
2018-02-02T07:08:37.749Z,4.40
2018-02-02T07:11:05.012Z,4.37
2018-02-02T07:13:32.029Z,7.33
2018-02-02T07:15:59.014Z,4.57
2018-02-02T07:18:27.022Z,8.40
2018-02-02T07:20:53.689Z,6.87
2018-02-02T07:23:20.315Z,5.47
2018-02-02T07:25:46.922Z,7.40
2018-02-02T07:28:13.539Z,7.23
2018-02-02T07:30:40.296Z,7.50
2018-02-02T07:33:07.142Z,7.50
2018-02-02T07:35:33.746Z,6.40
2018-02-02T07:38:00.414Z,5.33
2018-02-02T07:40:27.022Z,6.83
2018-02-02T07:42:54.406Z,6.80
2018-02-02T07:45:21.683Z,6.30
2018-02-02T07:47:48.982Z,7.80
2018-02-02T07:50:15.850Z,6.10
2018-02-02T07:52:42.807Z,7.37
2018-02-02T07:55:09.507Z,8.67
2018-02-02T07:57:36.222Z,4.33
2018-02-02T08:00:03.625Z,5.30
2018-02-02T08:02:30.557Z,4.87
2018-02-02T08:04:57.707Z,5.53
2018-02-02T08:07:24.275Z,5.70
2018-02-02T08:09:51.321Z,5.70
2018-02-02T08:12:18.975Z,5.70
2018-02-02T08:14:45.579Z,5.07
2018-02-02T08:17:12.244Z,4.27
2018-02-02T08:19:39.541Z,5.13
2018-02-02T08:22:06.669Z,5.60
2018-02-02T08:24:33.273Z,5.97
2018-02-02T08:27:00.655Z,6.33
2018-02-02T08:29:27.457Z,5.00
2018-02-02T08:31:53.994Z,5.53
2018-02-02T08:34:20.714Z,4.40
2018-02-02T08:36:47.942Z,5.27
2018-02-02T08:39:14.559Z,5.17
2018-02-02T08:41:41.133Z,4.03
2018-02-02T08:44:08.538Z,4.60
2018-02-02T08:46:35.202Z,4.60
2018-02-02T08:49:01.882Z,4.97
2018-02-02T08:51:29.324Z,4.20
2018-02-02T08:53:56.039Z,4.23
2018-02-02T08:56:22.620Z,4.60
2018-02-02T08:58:49.927Z,4.67
2018-02-02T09:01:22.599Z,5.57
2018-02-02T09:03:49.895Z,5.07
2018-02-02T09:06:16.714Z,6.13
2018-02-02T09:08:43.240Z,6.83
2018-02-02T09:11:09.754Z,5.77
2018-02-02T09:13:36.442Z,7.53
2018-02-02T09:16:03.423Z,5.87
2018-02-02T09:18:30.031Z,6.03
2018-02-02T09:20:56.511Z,6.97
2018-02-02T09:23:23.182Z,6.47
2018-02-02T09:25:50.474Z,6.60
2018-02-02T09:28:17.722Z,6.17
2018-02-02T09:30:44.340Z,8.10
2018-02-02T09:33:11.224Z,8.70
2018-02-02T09:35:38.060Z,7.60
2018-02-02T09:38:04.799Z,7.90
2018-02-02T09:40:31.392Z,8.07
2018-02-02T09:42:58.758Z,8.33
2018-02-02T09:45:26.086Z,7.50
2018-02-02T09:47:52.554Z,7.03
2018-02-02T09:50:19.131Z,6.80
2018-02-02T09:52:45.762Z,6.83
2018-02-02T09:55:12.746Z,6.30
2018-02-02T09:57:39.303Z,6.13
2018-02-02T10:00:06.694Z,7.20
2018-02-02T10:02:34.739Z,5.80
2018-02-02T10:05:01.266Z,6.67
2018-02-02T10:07:27.914Z,7.40
2018-02-02T10:09:55.137Z,7.10
2018-02-02T10:12:23.516Z,7.90
2018-02-02T10:14:50.613Z,6.70
2018-02-02T10:17:18.032Z,6.90
2018-02-02T10:19:44.634Z,7.67
2018-02-02T10:22:11.981Z,6.70
2018-02-02T10:24:38.537Z,7.13
2018-02-02T10:27:05.354Z,7.33
2018-02-02T10:29:31.877Z,7.67
2018-02-02T10:31:58.506Z,6.23
2018-02-02T10:34:25.794Z,9.07
2018-02-02T10:36:53.094Z,7.40
2018-02-02T10:39:20.107Z,8.40
2018-02-02T10:41:47.397Z,6.70
2018-02-02T10:44:14.766Z,8.07
2018-02-02T10:46:41.349Z,7.60
2018-02-02T10:49:07.970Z,8.03
2018-02-02T10:51:34.705Z,7.37
2018-02-02T10:54:02.152Z,7.60
2018-02-02T10:56:29.486Z,6.90
2018-02-02T10:58:56.028Z,6.50
2018-02-02T11:01:29.218Z,6.30
2018-02-02T11:03:56.565Z,6.40
2018-02-02T11:06:23.064Z,6.17
2018-02-02T11:08:49.681Z,5.73
2018-02-02T11:11:16.941Z,6.50
2018-02-02T11:13:43.570Z,6.40
2018-02-02T11:16:11.051Z,5.60
2018-02-02T11:18:37.667Z,5.20
2018-02-02T11:21:05.784Z,4.90
2018-02-02T11:23:32.306Z,7.30
2018-02-02T11:25:58.923Z,5.70
2018-02-02T11:28:25.465Z,8.00
2018-02-02T11:30:52.545Z,7.30
2018-02-02T11:33:19.207Z,6.40
2018-02-02T11:35:45.735Z,5.60
2018-02-02T11:38:12.309Z,7.10
2018-02-02T11:40:39.228Z,5.87
2018-02-02T11:43:05.889Z,7.57
2018-02-02T11:45:34.324Z,7.83
2018-02-02T11:48:00.864Z,7.00
2018-02-02T11:50:27.393Z,7.47
2018-02-02T11:52:54.860Z,5.73
2018-02-02T11:55:22.183Z,11.10
2018-02-02T11:57:48.649Z,8.10
2018-02-02T12:00:15.154Z,7.43
2018-02-02T12:02:41.880Z,6.33
2018-02-02T12:05:08.637Z,6.07
2018-02-02T12:07:35.269Z,5.20
2018-02-02T12:10:02.013Z,4.70
2018-02-02T12:12:28.960Z,6.17
2018-02-02T12:14:55.613Z,7.70
2018-02-02T12:17:23.571Z,5.87
2018-02-02T12:19:51.126Z,7.97
2018-02-02T12:22:23.969Z,5.57
2018-02-02T12:27:59.246Z,4.37
2018-02-02T12:33:39.570Z,4.80
2018-02-02T12:36:06.908Z,4.50
2018-02-02T12:38:33.482Z,4.03
2018-02-02T12:41:00.480Z,4.50
2018-02-02T12:43:27.078Z,5.97
2018-02-02T12:45:53.666Z,4.40
2018-02-02T12:48:32.493Z,6.87
2018-02-02T12:51:02.236Z,4.77
2018-02-02T12:53:29.070Z,5.20
2018-02-02T12:55:56.769Z,3.63
2018-02-02T12:58:24.178Z,4.73
2018-02-02T13:00:51.558Z,4.03
2018-02-02T13:03:18.047Z,3.83
2018-02-02T13:05:44.739Z,3.63
2018-02-02T13:08:11.614Z,3.90
2018-02-02T13:10:38.264Z,4.57
2018-02-02T13:13:05.022Z,4.07
2018-02-02T13:15:31.666Z,3.83
2018-02-02T13:17:58.913Z,3.97
2018-02-02T13:20:25.640Z,3.23
2018-02-02T13:22:52.215Z,3.80
2018-02-02T13:25:18.966Z,3.60
2018-02-02T13:27:45.540Z,3.33
2018-02-02T13:30:13.527Z,3.10
2018-02-02T13:32:40.980Z,2.30
2018-02-02T13:35:08.274Z,1.90
2018-02-02T13:37:34.977Z,1.77
2018-02-02T13:40:01.661Z,2.30
2018-02-02T13:42:28.932Z,2.50
2018-02-02T13:44:55.503Z,2.73
2018-02-02T13:47:22.072Z,2.03
2018-02-02T13:49:48.627Z,2.40
2018-02-02T13:52:16.325Z,1.67
2018-02-02T13:54:43.167Z,2.23
2018-02-02T13:57:09.713Z,2.00
2018-02-02T13:59:36.272Z,2.20
2018-02-02T14:02:03.386Z,2.93
2018-02-02T14:04:30.230Z,3.10
2018-02-02T14:06:57.601Z,2.13
2018-02-02T14:09:24.448Z,2.37
2018-02-02T14:11:52.914Z,2.23
2018-02-02T14:14:19.592Z,2.57
2018-02-02T14:16:46.170Z,2.90
2018-02-02T14:19:13.505Z,3.00
2018-02-02T14:21:40.778Z,2.40
2018-02-02T14:24:08.048Z,2.50
2018-02-02T14:26:34.687Z,2.30
2018-02-02T14:29:04.115Z,2.37
2018-02-02T14:31:33.881Z,2.23
2018-02-02T14:34:00.898Z,2.80
2018-02-02T14:36:28.305Z,2.47
2018-02-02T14:38:54.870Z,3.07
2018-02-02T14:41:22.221Z,3.03
2018-02-02T14:43:48.742Z,2.80
2018-02-02T14:46:16.378Z,2.97
2018-02-02T14:48:43.099Z,2.30
2018-02-02T14:51:09.766Z,2.97
2018-02-02T14:53:36.429Z,3.50
2018-02-02T14:56:03.516Z,3.67
2018-02-02T14:58:30.083Z,3.50
2018-02-02T15:00:56.682Z,4.00
2018-02-02T15:03:24.713Z,4.03
2018-02-02T15:05:51.267Z,3.60
2018-02-02T15:08:18.446Z,3.30
2018-02-02T15:10:45.349Z,4.23
2018-02-02T15:13:11.880Z,3.60
2018-02-02T15:15:38.351Z,4.03
2018-02-02T15:18:07.255Z,3.50
2018-02-02T15:20:33.826Z,4.17
2018-02-02T15:25:59.065Z,3.97
2018-02-02T15:28:25.572Z,4.70
2018-02-02T15:30:52.764Z,4.50
2018-02-02T15:33:19.255Z,5.10
2018-02-02T15:35:45.713Z,5.10
2018-02-02T15:38:12.179Z,5.87
2018-02-02T15:40:38.663Z,4.80
2018-02-02T15:43:06.024Z,5.07
2018-02-02T15:45:33.287Z,4.80
2018-02-02T15:48:00.607Z,6.60
2018-02-02T15:50:27.040Z,5.30
2018-02-02T15:52:54.239Z,5.03
2018-02-02T15:55:20.754Z,5.47
2018-02-02T15:57:47.583Z,6.47
2018-02-02T16:00:15.534Z,5.40
2018-02-02T16:02:42.048Z,6.00
2018-02-02T16:05:08.459Z,5.70
2018-02-02T16:07:35.628Z,5.40
2018-02-02T16:10:02.190Z,6.37
2018-02-02T16:12:28.682Z,6.70
2018-02-02T16:14:55.072Z,5.90
2018-02-02T16:17:21.507Z,6.30
2018-02-02T16:19:47.871Z,14.57
2018-02-02T16:22:14.970Z,6.27
2018-02-02T16:24:41.476Z,7.00
2018-02-02T16:27:07.947Z,6.13
2018-02-02T16:29:34.469Z,11.00
2018-02-02T16:32:01.868Z,6.70
2018-02-02T16:34:29.028Z,7.50
2018-02-02T16:36:55.911Z,5.30
2018-02-02T16:39:22.676Z,6.93
2018-02-02T16:41:49.166Z,7.40
2018-02-02T16:44:15.604Z,8.20
2018-02-02T16:46:43.013Z,6.77
2018-02-02T16:49:10.231Z,8.47
2018-02-02T16:51:36.771Z,7.33
2018-02-02T16:54:03.660Z,8.20
2018-02-02T16:56:30.213Z,10.33
2018-02-02T16:58:56.839Z,9.50
2018-02-02T17:01:24.751Z,7.40
2018-02-02T17:06:12.128Z,8.40
2018-02-02T17:08:38.601Z,10.00
2018-02-02T17:11:05.805Z,8.97
2018-02-02T17:13:33.042Z,7.77
2018-02-02T17:15:59.491Z,9.70
2018-02-02T17:18:25.947Z,8.43
2018-02-02T17:20:52.406Z,10.23
2018-02-02T17:23:18.947Z,7.33
2018-02-02T17:25:45.432Z,8.70
2018-02-02T17:28:12.604Z,8.97
2018-02-02T17:30:39.182Z,8.87
2018-02-02T17:33:05.878Z,9.10
2018-02-02T17:35:32.502Z,9.10
2018-02-02T17:37:59.855Z,8.10
2018-02-02T17:40:26.258Z,8.80
2018-02-02T17:42:53.198Z,8.50
2018-02-02T17:45:19.575Z,9.17
2018-02-02T17:47:46.054Z,8.80
2018-02-02T17:50:13.245Z,9.43
2018-02-02T17:52:39.734Z,8.77
2018-02-02T17:55:06.529Z,9.23
2018-02-02T17:57:32.929Z,14.90
2018-02-02T17:59:59.426Z,9.57
2018-02-02T18:05:26.188Z,7.60
2018-02-02T18:07:53.448Z,8.83
2018-02-02T18:10:20.752Z,7.60
2018-02-02T18:12:47.453Z,8.00
2018-02-02T18:15:13.966Z,8.37
2018-02-02T18:17:40.456Z,9.30
2018-02-02T18:20:08.482Z,8.10
2018-02-02T18:22:34.969Z,8.70
2018-02-02T18:25:01.548Z,10.00
2018-02-02T18:27:27.951Z,9.27
2018-02-02T18:29:54.393Z,9.93
2018-02-02T18:32:20.818Z,9.70
2018-02-02T18:34:47.311Z,9.97
2018-02-02T18:37:13.963Z,10.40
2018-02-02T18:39:40.360Z,10.57
2018-02-02T18:42:06.802Z,9.63
2018-02-02T18:44:33.274Z,11.00
2018-02-02T18:46:59.733Z,9.67
2018-02-02T18:49:26.932Z,8.47
2018-02-02T18:51:53.355Z,9.87
2018-02-02T18:54:19.785Z,14.43
2018-02-02T18:56:46.236Z,14.70
2018-02-02T18:59:12.710Z,12.57
2018-02-02T19:01:39.131Z,14.17
2018-02-02T19:04:06.290Z,15.67
2018-02-02T19:06:32.782Z,14.13
2018-02-02T19:08:59.226Z,23.07
2018-02-02T19:11:25.723Z,18.07
2018-02-02T19:13:52.288Z,13.37
2018-02-02T19:16:18.810Z,10.10
2018-02-02T19:18:45.278Z,13.70
2018-02-02T19:21:11.866Z,9.37
2018-02-02T19:23:38.342Z,8.90
2018-02-02T19:26:05.420Z,11.57
2018-02-02T19:28:31.912Z,9.30
2018-02-02T19:30:58.392Z,9.00
2018-02-02T19:33:24.806Z,8.10
2018-02-02T19:35:52.069Z,7.10
2018-02-02T19:38:19.271Z,7.87
2018-02-02T19:40:45.749Z,11.17
2018-02-02T19:43:12.193Z,10.80
2018-02-02T19:45:38.629Z,7.10
2018-02-02T19:48:07.004Z,10.00
2018-02-02T19:50:33.471Z,8.70
2018-02-02T19:53:00.714Z,7.77
2018-02-02T19:55:27.144Z,8.37
2018-02-02T19:57:53.900Z,9.17
2018-02-02T20:00:20.290Z,8.77
2018-02-02T20:02:47.021Z,6.50
2018-02-02T20:05:13.475Z,8.40
2018-02-02T20:07:40.054Z,7.40
2018-02-02T20:10:07.478Z,7.53
2018-02-02T20:12:33.963Z,6.60
2018-02-02T20:15:00.580Z,6.20
2018-02-02T20:17:27.091Z,6.13
2018-02-02T20:19:53.582Z,6.47
2018-02-02T20:22:20.053Z,5.90
2018-02-02T20:24:46.865Z,5.40
2018-02-02T20:27:14.146Z,6.03
2018-02-02T20:29:40.627Z,6.30
2018-02-02T20:32:07.063Z,6.13
2018-02-02T20:34:33.591Z,5.47
2018-02-02T20:37:00.144Z,6.07
2018-02-02T20:39:26.764Z,6.70
2018-02-02T20:41:54.057Z,6.40
2018-02-02T20:44:20.583Z,6.20
2018-02-02T20:46:47.069Z,5.63
2018-02-02T20:49:13.593Z,6.30
2018-02-02T20:51:40.114Z,6.33
2018-02-02T20:54:07.764Z,6.47
2018-02-02T20:56:34.966Z,6.50
2018-02-02T20:59:01.446Z,7.13
2018-02-02T21:01:28.000Z,6.67
2018-02-02T21:03:54.608Z,6.67
2018-02-02T21:06:21.121Z,6.93
2018-02-02T21:08:47.626Z,6.13
2018-02-02T21:11:14.155Z,8.33
2018-02-02T21:13:40.964Z,9.17
2018-02-02T21:16:07.818Z,10.63
2018-02-02T21:18:34.262Z,19.97
2018-02-02T21:21:00.905Z,10.93
2018-02-02T21:23:27.373Z,9.30
2018-02-02T21:25:54.585Z,17.10
2018-02-02T21:28:21.442Z,29.67
2018-02-02T21:30:47.861Z,13.93
2018-02-02T21:33:14.356Z,18.17
2018-02-02T21:35:40.768Z,7.23
2018-02-02T21:38:08.105Z,24.40
2018-02-02T21:40:34.665Z,39.10
2018-02-02T21:43:01.078Z,39.23
2018-02-02T21:45:27.521Z,14.50
2018-02-02T21:47:54.179Z,22.73
2018-02-02T21:50:20.581Z,15.30
2018-02-02T21:52:47.091Z,16.10
2018-02-02T21:55:13.497Z,16.50
2018-02-02T21:57:40.731Z,19.40
2018-02-02T22:00:07.845Z,30.43
2018-02-02T22:02:35.047Z,23.90
2018-02-02T22:05:02.590Z,14.50
2018-02-02T22:07:29.078Z,17.20
2018-02-02T22:09:55.659Z,19.10
2018-02-02T22:12:22.254Z,16.97
2018-02-02T22:14:49.479Z,16.67
2018-02-02T22:17:16.041Z,15.30
2018-02-02T22:19:42.590Z,20.47
2018-02-02T22:22:09.115Z,14.63
2018-02-02T22:24:36.329Z,14.13
2018-02-02T22:27:03.147Z,9.00
2018-02-02T22:29:30.344Z,13.00
2018-02-02T22:31:57.784Z,8.47
2018-02-02T22:34:24.250Z,9.20
2018-02-02T22:36:54.711Z,7.03
2018-02-02T22:39:21.198Z,7.70
2018-02-02T22:41:47.951Z,9.80
2018-02-02T22:44:14.501Z,8.73
2018-02-02T22:46:41.700Z,9.07
2018-02-02T22:49:08.215Z,7.63
2018-02-02T22:51:34.646Z,7.97
2018-02-02T22:54:01.051Z,5.17
2018-02-02T22:56:27.511Z,6.63
2018-02-02T22:58:53.968Z,6.10
2018-02-02T23:01:20.562Z,9.20
2018-02-02T23:03:47.060Z,5.30
2018-02-02T23:06:13.520Z,4.67
2018-02-02T23:08:39.940Z,5.70
2018-02-02T23:11:06.427Z,5.40
2018-02-02T23:13:32.838Z,4.47
2018-02-02T23:15:59.260Z,4.00
2018-02-02T23:18:25.697Z,7.13
2018-02-02T23:20:52.109Z,8.20
2018-02-02T23:23:18.570Z,7.43
2018-02-02T23:25:44.987Z,5.90
2018-02-02T23:28:11.378Z,7.83
2018-02-02T23:30:37.919Z,5.23
2018-02-02T23:33:05.457Z,5.20
2018-02-02T23:35:31.874Z,4.50
2018-02-02T23:37:58.281Z,5.20
2018-02-02T23:40:25.442Z,6.87
2018-02-02T23:42:52.702Z,5.33
2018-02-02T23:45:19.121Z,5.27
2018-02-02T23:47:45.558Z,4.50
2018-02-02T23:50:11.981Z,4.47
2018-02-02T23:52:38.399Z,4.80
2018-02-02T23:55:05.306Z,4.00
2018-02-02T23:57:31.857Z,4.90
2018-02-02T23:59:58.299Z,3.87
